sensor_id;sensor_type;location;lat;lon;timestamp;temperature;humidity
13322;DHT22;6730;46.248;6.930;2023-03-01T00:01:35;-0.30;99.90
13322;DHT22;6730;46.248;6.930;2023-03-01T00:04:01;-0.10;99.90
13322;DHT22;6730;46.248;6.930;2023-03-01T00:06:27;-0.30;99.90
13322;DHT22;6730;46.248;6.930;2023-03-01T00:08:53;-0.20;99.90
13322;DHT22;6730;46.248;6.930;2023-03-01T00:11:21;-0.30;99.90
13322;DHT22;6730;46.248;6.930;2023-03-01T00:13:49;-0.20;99.90
13322;DHT22;6730;46.248;6.930;2023-03-01T00:16:27;0.00;99.90
13322;DHT22;6730;46.248;6.930;2023-03-01T00:18:58;-0.20;99.90
13322;DHT22;6730;46.248;6.930;2023-03-01T00:21:24;-0.30;99.90
13322;DHT22;6730;46.248;6.930;2023-03-01T00:23:50;-0.30;99.90
13322;DHT22;6730;46.248;6.930;2023-03-01T00:26:17;-0.20;99.90
13322;DHT22;6730;46.248;6.930;2023-03-01T00:28:43;-0.20;99.90
13322;DHT22;6730;46.248;6.930;2023-03-01T00:31:15;-0.30;99.90
13322;DHT22;6730;46.248;6.930;2023-03-01T00:33:42;-0.10;99.90
13322;DHT22;6730;46.248;6.930;2023-03-01T00:36:10;-0.30;99.90
13322;DHT22;6730;46.248;6.930;2023-03-01T00:38:38;-0.20;99.90
13322;DHT22;6730;46.248;6.930;2023-03-01T00:41:06;-0.30;99.90
13322;DHT22;6730;46.248;6.930;2023-03-01T00:43:32;-0.30;99.90
13322;DHT22;6730;46.248;6.930;2023-03-01T00:46:06;-0.20;99.90
13322;DHT22;6730;46.248;6.930;2023-03-01T00:48:32;-0.30;99.90
13322;DHT22;6730;46.248;6.930;2023-03-01T00:51:14;-0.20;99.90
13322;DHT22;6730;46.248;6.930;2023-03-01T00:53:41;-0.10;99.90
13322;DHT22;6730;46.248;6.930;2023-03-01T00:56:08;-0.20;99.90
13322;DHT22;6730;46.248;6.930;2023-03-01T00:58:35;-0.30;99.90
13322;DHT22;6730;46.248;6.930;2023-03-01T01:01:01;-0.20;99.90
13322;DHT22;6730;46.248;6.930;2023-03-01T01:03:32;-0.20;99.90
13322;DHT22;6730;46.248;6.930;2023-03-01T01:05:57;-0.10;99.90
13322;DHT22;6730;46.248;6.930;2023-03-01T01:08:23;-0.10;99.90
13322;DHT22;6730;46.248;6.930;2023-03-01T01:10:49;0.50;99.90
13322;DHT22;6730;46.248;6.930;2023-03-01T01:13:14;0.20;99.90
13322;DHT22;6730;46.248;6.930;2023-03-01T01:15:41;-0.10;99.90
13322;DHT22;6730;46.248;6.930;2023-03-01T01:18:06;-0.20;99.90
13322;DHT22;6730;46.248;6.930;2023-03-01T01:20:34;-0.40;99.90
13322;DHT22;6730;46.248;6.930;2023-03-01T01:23:00;-0.50;99.90
13322;DHT22;6730;46.248;6.930;2023-03-01T01:25:26;-0.40;99.90
13322;DHT22;6730;46.248;6.930;2023-03-01T01:27:51;-0.40;99.90
13322;DHT22;6730;46.248;6.930;2023-03-01T01:30:17;-0.20;99.90
13322;DHT22;6730;46.248;6.930;2023-03-01T01:32:43;-0.30;99.90
13322;DHT22;6730;46.248;6.930;2023-03-01T01:35:09;-0.40;99.90
13322;DHT22;6730;46.248;6.930;2023-03-01T01:37:34;-0.40;99.90
13322;DHT22;6730;46.248;6.930;2023-03-01T01:40:01;-0.30;99.90
13322;DHT22;6730;46.248;6.930;2023-03-01T01:42:29;-0.30;99.90
13322;DHT22;6730;46.248;6.930;2023-03-01T01:47:53;-0.30;99.90
13322;DHT22;6730;46.248;6.930;2023-03-01T01:50:19;-0.40;99.90
13322;DHT22;6730;46.248;6.930;2023-03-01T01:52:45;-0.30;99.90
13322;DHT22;6730;46.248;6.930;2023-03-01T01:55:14;-0.40;99.90
13322;DHT22;6730;46.248;6.930;2023-03-01T01:57:51;-0.40;99.90
13322;DHT22;6730;46.248;6.930;2023-03-01T02:00:21;-0.40;99.90
13322;DHT22;6730;46.248;6.930;2023-03-01T02:02:50;-0.40;99.90
13322;DHT22;6730;46.248;6.930;2023-03-01T02:05:26;-0.30;99.90
13322;DHT22;6730;46.248;6.930;2023-03-01T02:07:55;-0.40;99.90
13322;DHT22;6730;46.248;6.930;2023-03-01T02:10:23;-0.30;99.90
13322;DHT22;6730;46.248;6.930;2023-03-01T02:12:50;-0.10;99.90
13322;DHT22;6730;46.248;6.930;2023-03-01T02:15:16;0.00;99.90
13322;DHT22;6730;46.248;6.930;2023-03-01T02:17:42;0.10;99.90
13322;DHT22;6730;46.248;6.930;2023-03-01T02:20:20;-0.10;99.90
13322;DHT22;6730;46.248;6.930;2023-03-01T02:22:47;-0.30;99.90
13322;DHT22;6730;46.248;6.930;2023-03-01T02:25:22;-0.20;99.90
13322;DHT22;6730;46.248;6.930;2023-03-01T02:27:58;-0.30;99.90
13322;DHT22;6730;46.248;6.930;2023-03-01T02:30:27;0.00;99.90
13322;DHT22;6730;46.248;6.930;2023-03-01T02:32:56;0.20;99.90
13322;DHT22;6730;46.248;6.930;2023-03-01T02:35:30;0.60;99.90
13322;DHT22;6730;46.248;6.930;2023-03-01T02:37:57;1.10;99.90
13322;DHT22;6730;46.248;6.930;2023-03-01T02:40:29;1.40;99.90
13322;DHT22;6730;46.248;6.930;2023-03-01T02:42:57;1.80;99.90
13322;DHT22;6730;46.248;6.930;2023-03-01T02:45:24;2.00;99.90
13322;DHT22;6730;46.248;6.930;2023-03-01T02:47:53;2.00;99.90
13322;DHT22;6730;46.248;6.930;2023-03-01T02:50:35;2.20;99.90
13322;DHT22;6730;46.248;6.930;2023-03-01T02:55:41;0.80;99.90
13322;DHT22;6730;46.248;6.930;2023-03-01T02:58:07;0.40;99.90
13322;DHT22;6730;46.248;6.930;2023-03-01T03:00:39;0.50;99.90
13322;DHT22;6730;46.248;6.930;2023-03-01T03:03:21;0.20;99.90
13322;DHT22;6730;46.248;6.930;2023-03-01T03:05:47;-0.10;99.90
13322;DHT22;6730;46.248;6.930;2023-03-01T03:08:14;0.00;99.90
13322;DHT22;6730;46.248;6.930;2023-03-01T03:10:49;-0.20;99.90
13322;DHT22;6730;46.248;6.930;2023-03-01T03:13:15;-0.40;99.90
13322;DHT22;6730;46.248;6.930;2023-03-01T03:15:41;-0.40;99.90
13322;DHT22;6730;46.248;6.930;2023-03-01T03:18:10;-0.30;99.90
13322;DHT22;6730;46.248;6.930;2023-03-01T03:20:36;-0.50;99.90
13322;DHT22;6730;46.248;6.930;2023-03-01T03:23:03;-0.50;99.90
13322;DHT22;6730;46.248;6.930;2023-03-01T03:25:29;-0.40;99.90
13322;DHT22;6730;46.248;6.930;2023-03-01T03:27:56;-0.50;99.90
13322;DHT22;6730;46.248;6.930;2023-03-01T03:30:24;-0.60;99.90
13322;DHT22;6730;46.248;6.930;2023-03-01T03:32:50;-0.60;99.90
13322;DHT22;6730;46.248;6.930;2023-03-01T03:35:30;-0.40;99.90
13322;DHT22;6730;46.248;6.930;2023-03-01T03:37:57;-0.30;99.90
13322;DHT22;6730;46.248;6.930;2023-03-01T03:40:39;-0.20;99.90
13322;DHT22;6730;46.248;6.930;2023-03-01T03:43:07;0.00;99.90
13322;DHT22;6730;46.248;6.930;2023-03-01T03:45:34;0.00;99.90
13322;DHT22;6730;46.248;6.930;2023-03-01T03:48:01;-0.10;99.90
13322;DHT22;6730;46.248;6.930;2023-03-01T03:50:27;0.20;99.90
13322;DHT22;6730;46.248;6.930;2023-03-01T03:52:53;0.30;99.90
13322;DHT22;6730;46.248;6.930;2023-03-01T03:55:19;0.20;99.90
13322;DHT22;6730;46.248;6.930;2023-03-01T03:57:46;0.50;99.90
13322;DHT22;6730;46.248;6.930;2023-03-01T04:00:21;0.60;99.90
13322;DHT22;6730;46.248;6.930;2023-03-01T04:02:50;1.00;99.90
13322;DHT22;6730;46.248;6.930;2023-03-01T04:05:17;1.50;99.90
13322;DHT22;6730;46.248;6.930;2023-03-01T04:07:44;1.50;99.90
13322;DHT22;6730;46.248;6.930;2023-03-01T04:10:16;1.60;99.90
13322;DHT22;6730;46.248;6.930;2023-03-01T04:12:43;1.60;99.90
13322;DHT22;6730;46.248;6.930;2023-03-01T04:15:10;1.70;99.90
13322;DHT22;6730;46.248;6.930;2023-03-01T04:17:47;1.70;99.90
13322;DHT22;6730;46.248;6.930;2023-03-01T04:20:18;1.60;99.90
13322;DHT22;6730;46.248;6.930;2023-03-01T04:25:18;1.60;99.90
13322;DHT22;6730;46.248;6.930;2023-03-01T04:27:43;0.90;99.90
13322;DHT22;6730;46.248;6.930;2023-03-01T04:30:10;0.30;99.90
13322;DHT22;6730;46.248;6.930;2023-03-01T04:32:35;-0.20;99.90
13322;DHT22;6730;46.248;6.930;2023-03-01T04:35:01;-0.30;99.90
13322;DHT22;6730;46.248;6.930;2023-03-01T04:37:27;-0.40;99.90
13322;DHT22;6730;46.248;6.930;2023-03-01T04:39:53;-0.40;99.90
13322;DHT22;6730;46.248;6.930;2023-03-01T04:42:18;-0.50;99.90
13322;DHT22;6730;46.248;6.930;2023-03-01T04:44:45;-0.50;99.90
13322;DHT22;6730;46.248;6.930;2023-03-01T04:47:11;-0.40;99.90
13322;DHT22;6730;46.248;6.930;2023-03-01T04:49:36;-0.60;99.90
13322;DHT22;6730;46.248;6.930;2023-03-01T04:52:03;-0.50;99.90
13322;DHT22;6730;46.248;6.930;2023-03-01T04:54:33;-0.50;99.90
13322;DHT22;6730;46.248;6.930;2023-03-01T04:56:59;-0.40;99.90
13322;DHT22;6730;46.248;6.930;2023-03-01T04:59:25;-0.30;99.90
13322;DHT22;6730;46.248;6.930;2023-03-01T05:01:51;-0.30;99.90
13322;DHT22;6730;46.248;6.930;2023-03-01T05:04:17;-0.30;99.90
13322;DHT22;6730;46.248;6.930;2023-03-01T05:06:43;-0.30;99.90
13322;DHT22;6730;46.248;6.930;2023-03-01T05:09:10;-0.40;99.90
13322;DHT22;6730;46.248;6.930;2023-03-01T05:11:37;-0.30;99.90
13322;DHT22;6730;46.248;6.930;2023-03-01T05:14:03;-0.10;99.90
13322;DHT22;6730;46.248;6.930;2023-03-01T05:16:29;0.00;99.90
13322;DHT22;6730;46.248;6.930;2023-03-01T05:18:56;0.10;99.90
13322;DHT22;6730;46.248;6.930;2023-03-01T05:21:22;0.30;99.90
13322;DHT22;6730;46.248;6.930;2023-03-01T05:23:48;0.10;99.90
13322;DHT22;6730;46.248;6.930;2023-03-01T05:26:14;0.20;99.90
13322;DHT22;6730;46.248;6.930;2023-03-01T05:28:40;0.30;99.90
13322;DHT22;6730;46.248;6.930;2023-03-01T05:31:06;0.30;99.90
13322;DHT22;6730;46.248;6.930;2023-03-01T05:33:39;-0.10;99.90
13322;DHT22;6730;46.248;6.930;2023-03-01T05:36:06;-0.10;99.90
13322;DHT22;6730;46.248;6.930;2023-03-01T05:38:32;0.10;99.90
13322;DHT22;6730;46.248;6.930;2023-03-01T05:40:58;0.20;99.90
13322;DHT22;6730;46.248;6.930;2023-03-01T05:43:24;0.50;99.90
13322;DHT22;6730;46.248;6.930;2023-03-01T05:45:50;0.50;99.90
13322;DHT22;6730;46.248;6.930;2023-03-01T05:48:16;0.80;99.90
13322;DHT22;6730;46.248;6.930;2023-03-01T05:50:45;1.10;99.90
13322;DHT22;6730;46.248;6.930;2023-03-01T05:53:17;1.30;99.90
13322;DHT22;6730;46.248;6.930;2023-03-01T05:55:45;1.50;99.90
13322;DHT22;6730;46.248;6.930;2023-03-01T05:58:15;1.70;99.90
13322;DHT22;6730;46.248;6.930;2023-03-01T06:00:42;1.80;99.90
13322;DHT22;6730;46.248;6.930;2023-03-01T06:03:10;1.50;99.90
13322;DHT22;6730;46.248;6.930;2023-03-01T06:05:36;0.70;99.90
13322;DHT22;6730;46.248;6.930;2023-03-01T06:08:02;0.40;99.90
13322;DHT22;6730;46.248;6.930;2023-03-01T06:10:29;-0.10;99.90
13322;DHT22;6730;46.248;6.930;2023-03-01T06:12:55;-0.10;99.90
13322;DHT22;6730;46.248;6.930;2023-03-01T06:15:21;0.30;99.90
13322;DHT22;6730;46.248;6.930;2023-03-01T06:17:47;0.10;99.90
13322;DHT22;6730;46.248;6.930;2023-03-01T06:22:41;-0.10;99.90
13322;DHT22;6730;46.248;6.930;2023-03-01T06:25:08;-0.30;99.90
13322;DHT22;6730;46.248;6.930;2023-03-01T06:27:34;-0.40;99.90
13322;DHT22;6730;46.248;6.930;2023-03-01T06:30:00;-0.40;99.90
13322;DHT22;6730;46.248;6.930;2023-03-01T06:32:26;-0.40;99.90
13322;DHT22;6730;46.248;6.930;2023-03-01T06:34:52;-0.20;99.90
13322;DHT22;6730;46.248;6.930;2023-03-01T06:37:18;0.00;99.90
13322;DHT22;6730;46.248;6.930;2023-03-01T06:39:43;0.40;99.90
13322;DHT22;6730;46.248;6.930;2023-03-01T06:42:09;0.80;99.90
13322;DHT22;6730;46.248;6.930;2023-03-01T06:44:35;1.10;99.90
13322;DHT22;6730;46.248;6.930;2023-03-01T06:47:02;1.50;99.90
13322;DHT22;6730;46.248;6.930;2023-03-01T06:49:28;1.60;99.90
13322;DHT22;6730;46.248;6.930;2023-03-01T06:51:54;1.80;99.90
13322;DHT22;6730;46.248;6.930;2023-03-01T06:54:19;1.80;99.90
13322;DHT22;6730;46.248;6.930;2023-03-01T06:56:48;1.80;99.90
13322;DHT22;6730;46.248;6.930;2023-03-01T06:59:15;1.60;99.90
13322;DHT22;6730;46.248;6.930;2023-03-01T07:01:40;1.60;99.90
13322;DHT22;6730;46.248;6.930;2023-03-01T07:04:06;1.40;99.90
13322;DHT22;6730;46.248;6.930;2023-03-01T07:06:32;1.40;99.90
13322;DHT22;6730;46.248;6.930;2023-03-01T07:08:58;0.50;99.90
13322;DHT22;6730;46.248;6.930;2023-03-01T07:11:24;0.00;99.90
13322;DHT22;6730;46.248;6.930;2023-03-01T07:13:50;0.10;99.90
13322;DHT22;6730;46.248;6.930;2023-03-01T07:16:15;0.30;99.90
13322;DHT22;6730;46.248;6.930;2023-03-01T07:18:41;0.50;99.90
13322;DHT22;6730;46.248;6.930;2023-03-01T07:21:12;0.80;99.90
13322;DHT22;6730;46.248;6.930;2023-03-01T07:23:38;1.20;99.90
13322;DHT22;6730;46.248;6.930;2023-03-01T07:26:04;1.40;99.90
13322;DHT22;6730;46.248;6.930;2023-03-01T07:28:30;1.50;99.90
13322;DHT22;6730;46.248;6.930;2023-03-01T07:31:04;1.50;99.90
13322;DHT22;6730;46.248;6.930;2023-03-01T07:33:30;1.20;99.90
13322;DHT22;6730;46.248;6.930;2023-03-01T07:36:00;1.20;99.90
13322;DHT22;6730;46.248;6.930;2023-03-01T07:38:27;0.60;99.90
13322;DHT22;6730;46.248;6.930;2023-03-01T07:40:54;0.30;99.90
13322;DHT22;6730;46.248;6.930;2023-03-01T07:43:22;0.00;99.90
13322;DHT22;6730;46.248;6.930;2023-03-01T07:45:48;0.00;99.90
13322;DHT22;6730;46.248;6.930;2023-03-01T07:48:13;-0.20;99.90
13322;DHT22;6730;46.248;6.930;2023-03-01T07:50:39;-0.20;99.90
13322;DHT22;6730;46.248;6.930;2023-03-01T07:53:05;-0.10;99.90
13322;DHT22;6730;46.248;6.930;2023-03-01T07:55:30;0.00;99.90
13322;DHT22;6730;46.248;6.930;2023-03-01T07:57:56;-0.10;99.90
13322;DHT22;6730;46.248;6.930;2023-03-01T08:00:22;0.00;99.90
13322;DHT22;6730;46.248;6.930;2023-03-01T08:02:47;0.00;99.90
13322;DHT22;6730;46.248;6.930;2023-03-01T08:05:13;0.10;99.90
13322;DHT22;6730;46.248;6.930;2023-03-01T08:07:39;-0.10;99.90
13322;DHT22;6730;46.248;6.930;2023-03-01T08:10:05;0.00;99.90
13322;DHT22;6730;46.248;6.930;2023-03-01T08:12:31;0.00;99.90
13322;DHT22;6730;46.248;6.930;2023-03-01T08:14:56;0.00;99.90
13322;DHT22;6730;46.248;6.930;2023-03-01T08:17:22;0.00;99.90
13322;DHT22;6730;46.248;6.930;2023-03-01T08:19:48;0.10;99.90
13322;DHT22;6730;46.248;6.930;2023-03-01T08:22:14;0.20;99.90
13322;DHT22;6730;46.248;6.930;2023-03-01T08:24:39;0.10;99.90
13322;DHT22;6730;46.248;6.930;2023-03-01T08:27:05;0.40;99.90
13322;DHT22;6730;46.248;6.930;2023-03-01T08:29:32;0.60;99.90
13322;DHT22;6730;46.248;6.930;2023-03-01T08:31:58;0.80;99.90
13322;DHT22;6730;46.248;6.930;2023-03-01T08:34:23;1.10;99.90
13322;DHT22;6730;46.248;6.930;2023-03-01T08:36:49;1.20;99.90
13322;DHT22;6730;46.248;6.930;2023-03-01T08:39:18;1.40;99.90
13322;DHT22;6730;46.248;6.930;2023-03-01T08:41:45;1.30;99.90
13322;DHT22;6730;46.248;6.930;2023-03-01T08:44:12;1.30;99.90
13322;DHT22;6730;46.248;6.930;2023-03-01T08:46:40;1.10;99.90
13322;DHT22;6730;46.248;6.930;2023-03-01T08:49:15;0.90;99.90
13322;DHT22;6730;46.248;6.930;2023-03-01T08:51:41;0.90;99.90
13322;DHT22;6730;46.248;6.930;2023-03-01T08:54:11;0.90;99.90
13322;DHT22;6730;46.248;6.930;2023-03-01T08:56:37;0.90;99.90
13322;DHT22;6730;46.248;6.930;2023-03-01T08:59:03;0.80;99.90
13322;DHT22;6730;46.248;6.930;2023-03-01T09:01:29;1.20;99.90
13322;DHT22;6730;46.248;6.930;2023-03-01T09:03:54;1.20;99.90
13322;DHT22;6730;46.248;6.930;2023-03-01T09:06:20;1.30;99.90
13322;DHT22;6730;46.248;6.930;2023-03-01T09:08:48;1.30;99.90
13322;DHT22;6730;46.248;6.930;2023-03-01T09:11:16;1.30;99.90
13322;DHT22;6730;46.248;6.930;2023-03-01T09:13:43;1.60;99.90
13322;DHT22;6730;46.248;6.930;2023-03-01T09:16:11;1.60;99.90
13322;DHT22;6730;46.248;6.930;2023-03-01T09:18:37;1.50;99.90
13322;DHT22;6730;46.248;6.930;2023-03-01T09:21:03;1.50;99.90
13322;DHT22;6730;46.248;6.930;2023-03-01T09:23:36;1.40;99.90
13322;DHT22;6730;46.248;6.930;2023-03-01T09:26:02;1.40;99.90
13322;DHT22;6730;46.248;6.930;2023-03-01T09:28:28;1.30;99.90
13322;DHT22;6730;46.248;6.930;2023-03-01T09:31:00;1.20;99.90
13322;DHT22;6730;46.248;6.930;2023-03-01T09:33:28;1.40;99.90
13322;DHT22;6730;46.248;6.930;2023-03-01T09:36:05;1.30;99.90
13322;DHT22;6730;46.248;6.930;2023-03-01T09:38:32;1.20;99.90
13322;DHT22;6730;46.248;6.930;2023-03-01T09:41:00;1.50;99.90
13322;DHT22;6730;46.248;6.930;2023-03-01T09:43:48;1.80;99.90
13322;DHT22;6730;46.248;6.930;2023-03-01T09:46:21;1.80;99.90
13322;DHT22;6730;46.248;6.930;2023-03-01T09:49:05;1.90;99.90
13322;DHT22;6730;46.248;6.930;2023-03-01T09:51:36;2.00;99.90
13322;DHT22;6730;46.248;6.930;2023-03-01T09:54:05;2.00;99.90
13322;DHT22;6730;46.248;6.930;2023-03-01T09:56:40;1.60;99.90
13322;DHT22;6730;46.248;6.930;2023-03-01T10:10:00;1.60;99.90
13322;DHT22;6730;46.248;6.930;2023-03-01T10:12:36;1.70;99.90
13322;DHT22;6730;46.248;6.930;2023-03-01T10:15:13;1.70;99.90
13322;DHT22;6730;46.248;6.930;2023-03-01T10:17:54;1.70;99.90
13322;DHT22;6730;46.248;6.930;2023-03-01T10:20:24;1.80;99.90
13322;DHT22;6730;46.248;6.930;2023-03-01T10:22:53;2.00;99.90
13322;DHT22;6730;46.248;6.930;2023-03-01T10:28:26;2.00;99.90
13322;DHT22;6730;46.248;6.930;2023-03-01T10:30:53;2.20;99.90
13322;DHT22;6730;46.248;6.930;2023-03-01T10:33:20;2.30;99.90
13322;DHT22;6730;46.248;6.930;2023-03-01T10:35:47;2.20;99.90
13322;DHT22;6730;46.248;6.930;2023-03-01T10:38:15;2.20;99.90
13322;DHT22;6730;46.248;6.930;2023-03-01T10:43:20;1.60;99.90
13322;DHT22;6730;46.248;6.930;2023-03-01T10:45:47;1.50;99.90
13322;DHT22;6730;46.248;6.930;2023-03-01T10:48:21;1.60;99.90
13322;DHT22;6730;46.248;6.930;2023-03-01T10:51:05;1.70;99.90
13322;DHT22;6730;46.248;6.930;2023-03-01T10:53:40;1.80;99.90
13322;DHT22;6730;46.248;6.930;2023-03-01T10:56:08;1.90;99.90
13322;DHT22;6730;46.248;6.930;2023-03-01T10:58:35;2.00;99.90
13322;DHT22;6730;46.248;6.930;2023-03-01T11:01:05;1.70;99.90
13322;DHT22;6730;46.248;6.930;2023-03-01T11:03:34;1.80;99.90
13322;DHT22;6730;46.248;6.930;2023-03-01T11:08:42;1.80;99.90
13322;DHT22;6730;46.248;6.930;2023-03-01T11:11:31;2.10;99.90
13322;DHT22;6730;46.248;6.930;2023-03-01T11:16:37;3.20;99.90
13322;DHT22;6730;46.248;6.930;2023-03-01T11:21:50;3.00;99.90
13322;DHT22;6730;46.248;6.930;2023-03-01T11:24:18;3.20;99.90
13322;DHT22;6730;46.248;6.930;2023-03-01T11:26:50;3.30;99.90
13322;DHT22;6730;46.248;6.930;2023-03-01T11:29:26;3.00;99.90
13322;DHT22;6730;46.248;6.930;2023-03-01T11:31:56;3.00;99.90
13322;DHT22;6730;46.248;6.930;2023-03-01T11:34:42;3.00;99.90
13322;DHT22;6730;46.248;6.930;2023-03-01T11:37:22;2.80;99.90
13322;DHT22;6730;46.248;6.930;2023-03-01T11:40:16;2.60;99.90
13322;DHT22;6730;46.248;6.930;2023-03-01T11:42:55;2.40;99.90
13322;DHT22;6730;46.248;6.930;2023-03-01T11:45:24;2.50;99.90
13322;DHT22;6730;46.248;6.930;2023-03-01T11:50:42;2.20;99.90
13322;DHT22;6730;46.248;6.930;2023-03-01T11:53:54;2.10;99.90
13322;DHT22;6730;46.248;6.930;2023-03-01T12:02:45;2.20;99.90
13322;DHT22;6730;46.248;6.930;2023-03-01T12:05:20;2.20;99.90
13322;DHT22;6730;46.248;6.930;2023-03-01T12:08:15;2.30;99.90
13322;DHT22;6730;46.248;6.930;2023-03-01T12:27:01;2.30;99.90
13322;DHT22;6730;46.248;6.930;2023-03-01T12:29:46;2.20;99.90
13322;DHT22;6730;46.248;6.930;2023-03-01T12:32:33;2.10;99.90
13322;DHT22;6730;46.248;6.930;2023-03-01T12:38:05;2.20;99.90
13322;DHT22;6730;46.248;6.930;2023-03-01T12:46:25;2.40;99.90
13322;DHT22;6730;46.248;6.930;2023-03-01T12:49:15;2.40;99.90
13322;DHT22;6730;46.248;6.930;2023-03-01T12:51:48;2.20;99.90
13322;DHT22;6730;46.248;6.930;2023-03-01T12:54:20;2.20;99.90
13322;DHT22;6730;46.248;6.930;2023-03-01T12:56:46;2.30;99.90
13322;DHT22;6730;46.248;6.930;2023-03-01T12:59:26;2.30;99.90
13322;DHT22;6730;46.248;6.930;2023-03-01T13:02:13;2.30;99.90
13322;DHT22;6730;46.248;6.930;2023-03-01T13:10:40;2.10;99.90
13322;DHT22;6730;46.248;6.930;2023-03-01T13:15:37;2.10;99.90
13322;DHT22;6730;46.248;6.930;2023-03-01T13:20:55;2.00;99.90
13322;DHT22;6730;46.248;6.930;2023-03-01T13:26:15;2.00;99.90
13322;DHT22;6730;46.248;6.930;2023-03-01T13:33:50;2.00;99.90
13322;DHT22;6730;46.248;6.930;2023-03-01T13:44:35;2.30;99.90
13322;DHT22;6730;46.248;6.930;2023-03-01T13:49:51;2.40;99.90
13322;DHT22;6730;46.248;6.930;2023-03-01T13:52:34;2.50;99.90
13322;DHT22;6730;46.248;6.930;2023-03-01T13:55:01;2.70;99.90
13322;DHT22;6730;46.248;6.930;2023-03-01T13:57:37;2.70;99.90
13322;DHT22;6730;46.248;6.930;2023-03-01T14:00:05;2.80;99.90
13322;DHT22;6730;46.248;6.930;2023-03-01T14:02:31;2.70;99.90
13322;DHT22;6730;46.248;6.930;2023-03-01T14:05:00;2.70;99.90
13322;DHT22;6730;46.248;6.930;2023-03-01T14:07:27;2.70;99.90
13322;DHT22;6730;46.248;6.930;2023-03-01T14:10:01;2.80;99.90
13322;DHT22;6730;46.248;6.930;2023-03-01T14:12:47;2.90;99.90
13322;DHT22;6730;46.248;6.930;2023-03-01T14:15:36;2.70;99.90
13322;DHT22;6730;46.248;6.930;2023-03-01T14:18:29;2.70;99.90
13322;DHT22;6730;46.248;6.930;2023-03-01T14:20:58;2.90;99.90
13322;DHT22;6730;46.248;6.930;2023-03-01T14:23:24;3.00;99.90
13322;DHT22;6730;46.248;6.930;2023-03-01T14:25:55;3.00;99.90
13322;DHT22;6730;46.248;6.930;2023-03-01T14:28:24;3.00;99.90
13322;DHT22;6730;46.248;6.930;2023-03-01T14:30:56;2.90;99.90
13322;DHT22;6730;46.248;6.930;2023-03-01T14:35:57;2.90;99.90
13322;DHT22;6730;46.248;6.930;2023-03-01T14:38:36;2.90;99.90
13322;DHT22;6730;46.248;6.930;2023-03-01T14:43:34;2.70;99.90
13322;DHT22;6730;46.248;6.930;2023-03-01T14:46:01;2.70;99.90
13322;DHT22;6730;46.248;6.930;2023-03-01T14:48:28;2.90;99.90
13322;DHT22;6730;46.248;6.930;2023-03-01T14:50:54;3.00;99.90
13322;DHT22;6730;46.248;6.930;2023-03-01T14:53:29;2.80;99.90
13322;DHT22;6730;46.248;6.930;2023-03-01T14:56:02;2.80;99.90
13322;DHT22;6730;46.248;6.930;2023-03-01T14:58:28;2.80;99.90
13322;DHT22;6730;46.248;6.930;2023-03-01T15:00:59;2.90;99.90
13322;DHT22;6730;46.248;6.930;2023-03-01T15:03:49;3.20;99.90
13322;DHT22;6730;46.248;6.930;2023-03-01T15:06:21;3.20;99.90
13322;DHT22;6730;46.248;6.930;2023-03-01T15:08:50;3.30;99.90
13322;DHT22;6730;46.248;6.930;2023-03-01T15:13:51;3.10;99.90
13322;DHT22;6730;46.248;6.930;2023-03-01T15:16:23;3.20;99.90
13322;DHT22;6730;46.248;6.930;2023-03-01T15:18:54;3.20;99.90
13322;DHT22;6730;46.248;6.930;2023-03-01T15:21:33;3.30;99.90
13322;DHT22;6730;46.248;6.930;2023-03-01T15:26:42;3.50;99.90
13322;DHT22;6730;46.248;6.930;2023-03-01T15:29:16;3.70;99.90
13322;DHT22;6730;46.248;6.930;2023-03-01T15:31:43;3.50;99.90
13322;DHT22;6730;46.248;6.930;2023-03-01T15:36:53;3.20;99.90
13322;DHT22;6730;46.248;6.930;2023-03-01T15:39:41;3.10;99.90
13322;DHT22;6730;46.248;6.930;2023-03-01T15:45:20;2.70;99.90
13322;DHT22;6730;46.248;6.930;2023-03-01T15:48:14;2.60;99.90
13322;DHT22;6730;46.248;6.930;2023-03-01T15:50:40;2.30;99.90
13322;DHT22;6730;46.248;6.930;2023-03-01T15:53:11;2.20;99.90
13322;DHT22;6730;46.248;6.930;2023-03-01T15:55:38;2.50;99.90
13322;DHT22;6730;46.248;6.930;2023-03-01T15:58:10;2.60;99.90
13322;DHT22;6730;46.248;6.930;2023-03-01T16:00:38;2.70;99.90
13322;DHT22;6730;46.248;6.930;2023-03-01T16:03:05;2.70;99.90
13322;DHT22;6730;46.248;6.930;2023-03-01T16:05:32;2.70;99.90
13322;DHT22;6730;46.248;6.930;2023-03-01T16:08:00;2.60;99.90
13322;DHT22;6730;46.248;6.930;2023-03-01T16:10:27;2.90;99.90
13322;DHT22;6730;46.248;6.930;2023-03-01T16:12:53;2.60;99.90
13322;DHT22;6730;46.248;6.930;2023-03-01T16:15:21;2.30;99.90
13322;DHT22;6730;46.248;6.930;2023-03-01T16:17:47;2.20;99.90
13322;DHT22;6730;46.248;6.930;2023-03-01T16:20:13;2.50;99.90
13322;DHT22;6730;46.248;6.930;2023-03-01T16:22:45;2.50;99.90
13322;DHT22;6730;46.248;6.930;2023-03-01T16:25:13;2.40;99.90
13322;DHT22;6730;46.248;6.930;2023-03-01T16:27:42;2.80;99.90
13322;DHT22;6730;46.248;6.930;2023-03-01T16:30:08;2.90;99.90
13322;DHT22;6730;46.248;6.930;2023-03-01T16:32:38;2.60;99.90
13322;DHT22;6730;46.248;6.930;2023-03-01T16:35:05;2.70;99.90
13322;DHT22;6730;46.248;6.930;2023-03-01T16:37:32;2.90;99.90
13322;DHT22;6730;46.248;6.930;2023-03-01T16:39:58;3.20;99.90
13322;DHT22;6730;46.248;6.930;2023-03-01T16:42:24;3.30;99.90
13322;DHT22;6730;46.248;6.930;2023-03-01T16:44:54;3.50;99.90
13322;DHT22;6730;46.248;6.930;2023-03-01T16:47:20;3.70;99.90
13322;DHT22;6730;46.248;6.930;2023-03-01T16:49:46;3.60;99.90
13322;DHT22;6730;46.248;6.930;2023-03-01T16:52:12;3.50;99.90
13322;DHT22;6730;46.248;6.930;2023-03-01T16:54:38;3.30;99.90
13322;DHT22;6730;46.248;6.930;2023-03-01T16:57:04;3.20;99.90
13322;DHT22;6730;46.248;6.930;2023-03-01T16:59:30;3.00;99.90
13322;DHT22;6730;46.248;6.930;2023-03-01T17:01:56;2.80;99.90
13322;DHT22;6730;46.248;6.930;2023-03-01T17:04:21;2.60;99.90
13322;DHT22;6730;46.248;6.930;2023-03-01T17:06:47;2.70;99.90
13322;DHT22;6730;46.248;6.930;2023-03-01T17:09:14;2.80;99.90
13322;DHT22;6730;46.248;6.930;2023-03-01T17:11:40;3.00;99.90
13322;DHT22;6730;46.248;6.930;2023-03-01T17:14:06;2.90;99.90
13322;DHT22;6730;46.248;6.930;2023-03-01T17:16:32;2.30;99.90
13322;DHT22;6730;46.248;6.930;2023-03-01T17:18:58;1.80;99.90
13322;DHT22;6730;46.248;6.930;2023-03-01T17:21:23;1.70;99.90
13322;DHT22;6730;46.248;6.930;2023-03-01T17:23:49;2.20;99.90
13322;DHT22;6730;46.248;6.930;2023-03-01T17:26:16;2.70;99.90
13322;DHT22;6730;46.248;6.930;2023-03-01T17:28:42;2.80;99.90
13322;DHT22;6730;46.248;6.930;2023-03-01T17:31:08;2.90;99.90
13322;DHT22;6730;46.248;6.930;2023-03-01T17:33:34;3.10;99.90
13322;DHT22;6730;46.248;6.930;2023-03-01T17:36:00;3.10;99.90
13322;DHT22;6730;46.248;6.930;2023-03-01T17:38:26;2.80;99.90
13322;DHT22;6730;46.248;6.930;2023-03-01T17:40:52;2.30;99.90
13322;DHT22;6730;46.248;6.930;2023-03-01T17:43:18;2.30;99.90
13322;DHT22;6730;46.248;6.930;2023-03-01T17:45:45;2.70;99.90
13322;DHT22;6730;46.248;6.930;2023-03-01T17:48:14;3.00;99.90
13322;DHT22;6730;46.248;6.930;2023-03-01T17:50:40;2.90;99.90
13322;DHT22;6730;46.248;6.930;2023-03-01T17:53:06;2.80;99.90
13322;DHT22;6730;46.248;6.930;2023-03-01T17:55:35;3.00;99.90
13322;DHT22;6730;46.248;6.930;2023-03-01T17:58:02;3.20;99.90
13322;DHT22;6730;46.248;6.930;2023-03-01T18:00:28;3.40;99.90
13322;DHT22;6730;46.248;6.930;2023-03-01T18:02:53;3.60;99.90
13322;DHT22;6730;46.248;6.930;2023-03-01T18:05:19;4.00;99.90